Time;durP1;ratioP1;P1;durP2;ratioP2;P2;SDS_P1;SDS_P2;PMS_P1;PMS_P2;Temp;Humidity;BMP_temperature;BMP_pressure;BME280_temperature;BME280_humidity;BME280_pressure;Samples;Min_cycle;Max_cycle;Signal;HPM_P1;HPM_P2
2022/06/23 00:00:30;;;;;;;8.27;6.30;;;15.10;99.90;;;;;;5036826;28;20029;-85
2022/06/23 00:02:58;;;;;;;8.20;5.97;;;15.00;99.90;;;;;;5058632;28;20378;-85
2022/06/23 00:05:28;;;;;;;7.95;6.22;;;15.00;99.90;;;;;;5052800;28;20559;-85
2022/06/23 00:07:57;;;;;;;8.65;6.40;;;15.00;99.90;;;;;;5055237;28;20400;-85
2022/06/23 00:10:47;;;;;;;7.35;5.97;;;14.90;99.90;;;;;;5052938;28;20048;-90
2022/06/23 00:17:34;;;;;;;7.80;5.75;;;14.90;99.90;;;;;;5031582;28;20080;-90
2022/06/23 00:20:27;;;;;;;8.35;5.80;;;14.80;99.90;;;;;;5014454;28;20045;-89
2022/06/23 00:23:10;;;;;;;7.78;6.35;;;14.80;99.90;;;;;;5001501;28;20152;-85
2022/06/23 00:25:41;;;;;;;;;;;14.80;99.90;;;;;;4998427;28;20049;-85
2022/06/23 00:28:20;;;;;;;8.95;5.93;;;14.80;99.90;;;;;;5013121;28;20416;-85
2022/06/23 00:30:51;;;;;;;7.75;6.22;;;14.70;99.90;;;;;;5014568;28;20045;-86
2022/06/23 00:33:21;;;;;;;7.10;5.85;;;14.70;99.90;;;;;;4998299;28;20116;-85
2022/06/23 00:35:50;;;;;;;9.00;6.32;;;14.60;99.90;;;;;;5014489;28;20049;-85
2022/06/23 00:38:24;;;;;;;7.85;5.80;;;14.50;99.90;;;;;;5017571;28;20124;-85
2022/06/23 00:40:57;;;;;;;6.55;5.72;;;14.60;99.90;;;;;;5005526;28;20627;-87
2022/06/23 00:43:52;;;;;;;7.30;5.78;;;14.50;99.90;;;;;;4997889;28;20053;-90
2022/06/23 00:46:34;;;;;;;6.80;5.93;;;14.50;99.90;;;;;;5017840;28;20091;-90
2022/06/23 00:49:22;;;;;;;7.20;5.88;;;14.70;99.90;;;;;;5019449;28;20048;-91
2022/06/23 00:54:52;;;;;;;7.07;5.70;;;14.40;99.90;;;;;;1325552;26;20081;-90
2022/06/23 00:57:43;;;;;;;7.45;6.03;;;14.40;99.90;;;;;;5098666;28;20542;-91
2022/06/23 01:00:33;;;;;;;8.07;5.65;;;14.40;99.90;;;;;;5074248;28;20032;-91
2022/06/23 01:03:14;;;;;;;7.07;5.65;;;14.40;99.90;;;;;;5073488;28;20070;-86
2022/06/23 01:06:16;;;;;;;6.75;5.85;;;14.40;99.90;;;;;;5094951;28;20035;-91
2022/06/23 01:09:34;;;;;;;7.80;6.13;;;14.30;99.90;;;;;;5098213;28;20043;-91
2022/06/23 01:12:41;;;;;;;8.30;5.97;;;14.30;99.90;;;;;;5098376;28;20044;-90
2022/06/23 01:15:33;;;;;;;8.82;6.18;;;14.30;99.90;;;;;;5072986;28;20028;-91
2022/06/23 01:18:14;;;;;;;9.77;6.50;;;14.30;99.90;;;;;;5086466;28;20032;-90
2022/06/23 01:20:54;;;;;;;7.03;5.82;;;14.30;99.90;;;;;;5069803;28;20046;-90
2022/06/23 01:24:09;;;;;;;11.23;5.90;;;14.30;99.90;;;;;;5077634;28;20122;-90
2022/06/23 01:27:02;;;;;;;7.32;5.70;;;14.30;99.90;;;;;;4994968;28;20406;-89
2022/06/23 01:29:51;;;;;;;6.70;5.43;;;14.20;99.90;;;;;;4993667;28;20389;-85
2022/06/23 01:33:21;;;;;;;6.57;5.25;;;14.20;99.90;;;;;;5066030;28;20047;-86
2022/06/23 01:35:57;;;;;;;9.32;5.50;;;14.10;99.90;;;;;;5102724;28;20058;-86
2022/06/23 01:38:52;;;;;;;6.80;5.70;;;14.10;99.90;;;;;;5084817;28;20031;-85
2022/06/23 01:41:27;;;;;;;7.47;5.85;;;14.10;99.90;;;;;;5090938;28;20043;-87
2022/06/23 01:43:59;;;;;;;8.27;5.78;;;14.10;99.90;;;;;;5063618;28;20496;-85
2022/06/23 01:46:40;;;;;;;6.65;5.55;;;14.00;99.90;;;;;;5083123;28;20461;-85
2022/06/23 01:49:34;;;;;;;7.70;5.65;;;14.00;99.90;;;;;;5085208;28;20032;-89
2022/06/23 01:52:20;;;;;;;6.85;5.47;;;14.00;99.90;;;;;;5079617;28;20096;-86
2022/06/23 01:54:51;;;;;;;7.10;5.72;;;14.00;99.90;;;;;;5079082;28;20462;-86
2022/06/23 01:57:36;;;;;;;7.60;5.95;;;13.90;99.90;;;;;;5075131;28;20095;-85
2022/06/23 02:00:09;;;;;;;7.78;6.05;;;14.00;99.90;;;;;;5080382;28;20033;-85
2022/06/23 02:03:00;;;;;;;9.27;6.25;;;13.90;99.90;;;;;;5062501;28;20036;-85
2022/06/23 02:05:40;;;;;;;9.57;6.65;;;13.90;99.90;;;;;;5057880;28;20040;-85
2022/06/23 02:08:31;;;;;;;8.07;6.65;;;13.90;99.90;;;;;;5058119;28;20043;-85
2022/06/23 02:11:38;;;;;;;8.63;6.72;;;13.80;99.90;;;;;;5080369;28;20133;-85
2022/06/23 02:14:22;;;;;;;9.05;7.25;;;13.80;99.90;;;;;;5068334;28;20036;-85
2022/06/23 02:17:11;;;;;;;8.77;7.60;;;13.80;99.90;;;;;;5076863;28;20047;-85
2022/06/23 02:19:47;;;;;;;8.63;7.25;;;13.70;99.90;;;;;;5064190;28;20085;-85
2022/06/23 02:22:34;;;;;;;11.80;7.55;;;13.70;99.90;;;;;;5056418;28;20036;-85
2022/06/23 02:25:03;;;;;;;11.05;7.57;;;13.70;99.90;;;;;;5060806;28;20045;-86
2022/06/23 02:27:50;;;;;;;8.85;7.20;;;13.70;99.90;;;;;;5063016;28;20372;-85
2022/06/23 02:30:22;;;;;;;;;;;13.60;99.90;;;;;;5053651;28;20395;-86
2022/06/23 02:33:22;;;;;;;10.18;7.28;;;13.60;99.90;;;;;;5068180;28;19927;-85
2022/06/23 02:35:51;;;;;;;9.48;8.20;;;13.60;99.90;;;;;;5063228;28;20040;-84
2022/06/23 02:38:30;;;;;;;11.57;8.38;;;13.60;99.90;;;;;;5068227;28;20036;-84
2022/06/23 02:41:12;;;;;;;14.40;8.43;;;13.60;99.90;;;;;;5048531;28;20377;-84
2022/06/23 02:44:01;;;;;;;10.55;8.18;;;13.60;99.90;;;;;;5064936;28;20404;-85
2022/06/23 02:46:55;;;;;;;11.60;9.00;;;13.50;99.90;;;;;;5036995;28;20147;-84
2022/06/23 02:49:58;;;;;;;9.85;8.43;;;13.60;99.90;;;;;;5059491;28;20052;-84
2022/06/23 02:52:49;;;;;;;11.50;9.13;;;13.50;99.90;;;;;;5062089;28;20069;-85
2022/06/23 02:55:48;;;;;;;12.00;9.90;;;13.50;99.90;;;;;;5063709;28;20438;-85
2022/06/23 02:58:21;;;;;;;10.05;8.95;;;13.50;99.90;;;;;;5061914;28;20036;-85
2022/06/23 03:01:02;;;;;;;13.20;9.27;;;13.50;99.90;;;;;;5086903;28;20036;-85
2022/06/23 03:03:34;;;;;;;12.50;10.00;;;13.50;99.90;;;;;;5056199;28;20043;-85
2022/06/23 03:06:24;;;;;;;14.00;10.82;;;13.50;99.90;;;;;;5070357;28;20036;-85
2022/06/23 03:09:03;;;;;;;12.75;10.07;;;13.50;99.90;;;;;;5064043;28;20147;-85
2022/06/23 03:11:56;;;;;;;11.75;9.38;;;13.50;99.90;;;;;;5059668;28;20400;-86
2022/06/23 03:14:28;;;;;;;12.75;9.20;;;13.40;99.90;;;;;;5061677;28;20484;-85
2022/06/23 03:17:03;;;;;;;13.68;9.95;;;13.50;99.90;;;;;;5042554;28;20395;-84
2022/06/23 03:19:38;;;;;;;11.10;8.93;;;13.40;99.90;;;;;;5063909;28;20032;-85
2022/06/23 03:22:14;;;;;;;14.10;10.57;;;13.30;99.90;;;;;;5052808;28;20044;-85
2022/06/23 03:24:56;;;;;;;12.40;9.25;;;13.40;99.90;;;;;;5064028;28;20044;-85
2022/06/23 03:27:58;;;;;;;11.88;9.73;;;13.30;99.90;;;;;;5061208;28;20096;-84
2022/06/23 03:30:35;;;;;;;13.32;9.52;;;13.30;99.90;;;;;;5048304;28;20474;-85
2022/06/23 03:33:22;;;;;;;13.57;10.40;;;13.30;99.90;;;;;;5061489;28;20044;-86
2022/06/23 03:35:57;;;;;;;15.02;10.38;;;13.30;99.90;;;;;;5059755;28;20040;-85
2022/06/23 03:41:37;;;;;;;14.80;10.45;;;13.30;99.90;;;;;;5086322;28;20510;-86
2022/06/23 03:44:22;;;;;;;15.10;10.98;;;13.30;99.90;;;;;;5069800;28;20434;-84
2022/06/23 03:46:59;;;;;;;16.67;10.30;;;13.30;99.90;;;;;;5064219;28;20140;-84
2022/06/23 03:49:46;;;;;;;13.90;10.30;;;13.30;99.90;;;;;;5062285;28;20124;-84
2022/06/23 03:52:33;;;;;;;12.00;9.83;;;13.30;99.90;;;;;;5069220;28;20040;-84
2022/06/23 03:55:22;;;;;;;14.57;9.93;;;13.30;99.90;;;;;;5064870;28;20500;-86
2022/06/23 03:58:08;;;;;;;13.13;9.77;;;13.30;99.90;;;;;;5082900;28;20085;-85
2022/06/23 04:00:42;;;;;;;12.50;9.38;;;13.40;99.90;;;;;;5063131;28;20570;-85
2022/06/23 04:03:18;;;;;;;15.48;10.52;;;13.40;99.90;;;;;;5073294;28;20094;-85
2022/06/23 04:05:55;;;;;;;12.23;9.73;;;13.40;99.90;;;;;;5063222;28;20043;-85
2022/06/23 04:09:03;;;;;;;12.50;9.60;;;13.40;99.90;;;;;;5074118;28;20075;-87
2022/06/23 04:11:45;;;;;;;14.20;10.40;;;13.40;99.90;;;;;;5070021;28;20040;-85
2022/06/23 04:14:32;;;;;;;18.25;10.85;;;13.50;99.90;;;;;;5075749;28;20483;-86
2022/06/23 04:17:32;;;;;;;14.60;10.47;;;13.50;99.90;;;;;;5046080;28;20048;-84
2022/06/23 04:20:17;;;;;;;13.10;10.10;;;13.50;99.90;;;;;;5065014;28;20035;-85
2022/06/23 04:22:48;;;;;;;14.55;10.32;;;13.50;99.90;;;;;;5055942;28;20028;-85
2022/06/23 04:25:19;;;;;;;15.32;10.73;;;13.50;99.90;;;;;;5065733;28;20041;-85
2022/06/23 04:27:47;;;;;;;13.60;9.30;;;13.50;99.90;;;;;;5090246;28;20058;-84
2022/06/23 04:30:40;;;;;;;13.23;9.90;;;13.50;99.90;;;;;;5068026;28;20123;-83
2022/06/23 04:33:13;;;;;;;12.82;10.02;;;13.60;99.90;;;;;;5058361;28;20040;-85
2022/06/23 04:35:40;;;;;;;15.55;10.02;;;13.60;99.90;;;;;;5069872;28;20036;-83
2022/06/23 04:38:18;;;;;;;14.63;10.13;;;13.60;99.90;;;;;;5072863;28;20036;-83
2022/06/23 04:41:02;;;;;;;12.52;9.43;;;13.70;99.90;;;;;;5065574;28;20036;-83
2022/06/23 04:43:30;;;;;;;16.88;10.02;;;13.70;99.90;;;;;;5068358;28;20036;-83
2022/06/23 04:46:18;;;;;;;13.50;10.30;;;13.70;99.90;;;;;;5050588;28;20039;-84
2022/06/23 04:49:09;;;;;;;13.23;10.10;;;13.80;99.90;;;;;;5042759;28;20496;-84
2022/06/23 04:51:36;;;;;;;13.05;9.85;;;13.80;99.90;;;;;;5033495;28;20044;-84
2022/06/23 04:54:23;;;;;;;16.42;10.85;;;13.90;99.90;;;;;;5070481;28;20063;-83
2022/06/23 04:56:57;;;;;;;16.45;10.70;;;13.90;99.90;;;;;;5069501;28;20044;-85
2022/06/23 04:59:29;;;;;;;11.27;9.07;;;14.00;99.90;;;;;;5086838;28;20044;-87
2022/06/23 05:01:57;;;;;;;16.05;9.82;;;14.00;99.90;;;;;;5070656;28;20038;-85
2022/06/23 05:04:29;;;;;;;12.60;9.98;;;14.00;99.90;;;;;;5073674;28;20488;-87
2022/06/23 05:06:59;;;;;;;14.10;9.13;;;14.00;99.90;;;;;;5039836;28;20041;-87
2022/06/23 05:09:43;;;;;;;12.07;9.85;;;14.10;99.90;;;;;;5073642;28;20044;-87
2022/06/23 05:12:34;;;;;;;12.13;8.55;;;14.20;99.90;;;;;;5064196;28;20032;-86
2022/06/23 05:15:08;;;;;;;14.55;9.20;;;14.20;99.90;;;;;;5054109;28;20032;-86
2022/06/23 05:17:40;;;;;;;10.85;8.32;;;14.30;99.90;;;;;;5056893;28;20392;-87
2022/06/23 05:20:07;;;;;;;13.27;8.70;;;14.40;99.90;;;;;;5071681;28;20033;-87
2022/06/23 05:22:44;;;;;;;18.30;9.43;;;14.50;99.90;;;;;;5040147;28;20047;-86
2022/06/23 05:25:16;;;;;;;13.55;9.68;;;14.60;99.90;;;;;;5066501;28;20096;-86
2022/06/23 05:27:45;;;;;;;11.05;8.45;;;14.70;99.90;;;;;;5037636;28;20036;-86
2022/06/23 05:30:37;;;;;;;13.02;8.38;;;14.80;99.90;;;;;;5073448;28;20051;-86
2022/06/23 05:33:20;;;;;;;12.15;8.50;;;15.00;99.90;;;;;;5058610;28;20318;-87
2022/06/23 05:35:50;;;;;;;11.60;8.60;;;15.20;99.90;;;;;;5065217;28;20234;-87
2022/06/23 05:38:38;;;;;;;10.98;7.97;;;15.40;99.90;;;;;;5056991;28;20499;-86
2022/06/23 05:41:34;;;;;;;10.48;7.80;;;15.60;99.90;;;;;;5037302;28;20048;-86
2022/06/23 05:44:04;;;;;;;11.30;7.93;;;15.90;99.90;;;;;;5065707;28;20093;-87
2022/06/23 05:46:31;;;;;;;10.38;7.82;;;16.10;99.90;;;;;;5060029;28;20100;-87
2022/06/23 05:49:01;;;;;;;9.40;7.10;;;16.20;99.90;;;;;;5061333;28;20561;-86
2022/06/23 05:52:02;;;;;;;11.45;8.20;;;16.40;99.90;;;;;;5054041;28;20553;-86
2022/06/23 05:54:33;;;;;;;10.32;7.53;;;16.60;99.90;;;;;;5048652;28;20067;-86
2022/06/23 05:57:21;;;;;;;9.68;7.60;;;16.80;99.90;;;;;;5078337;28;20036;-87
2022/06/23 05:59:53;;;;;;;9.68;7.53;;;16.90;99.90;;;;;;5062593;28;20062;-85
2022/06/23 06:02:45;;;;;;;8.82;6.90;;;17.10;99.90;;;;;;5072657;28;20129;-86
2022/06/23 06:05:23;;;;;;;10.30;7.28;;;17.30;99.90;;;;;;5096854;28;20054;-87
2022/06/23 06:07:48;;;;;;;9.48;7.45;;;17.60;99.90;;;;;;5092014;28;20134;-87
2022/06/23 06:10:21;;;;;;;12.25;7.38;;;18.20;99.90;;;;;;5073752;28;20077;-87
2022/06/23 06:12:49;;;;;;;11.18;7.22;;;18.70;99.90;;;;;;5073761;28;20043;-87
2022/06/23 06:15:17;;;;;;;9.63;6.53;;;19.10;99.90;;;;;;5077462;28;20115;-86
2022/06/23 06:17:44;;;;;;;9.65;7.20;;;19.10;99.90;;;;;;5072212;28;20032;-87
2022/06/23 06:20:11;;;;;;;10.00;7.13;;;19.60;99.90;;;;;;5070927;28;20479;-86
2022/06/23 06:22:53;;;;;;;8.80;6.15;;;20.00;99.90;;;;;;5090162;28;20031;-87
2022/06/23 06:25:25;;;;;;;11.02;7.05;;;20.00;99.90;;;;;;5092529;28;20039;-87
2022/06/23 06:27:52;;;;;;;11.20;6.70;;;20.20;99.90;;;;;;5094643;28;20472;-86
2022/06/23 06:30:24;;;;;;;8.70;6.63;;;20.20;99.90;;;;;;5075744;28;20044;-87
2022/06/23 06:32:50;;;;;;;9.85;6.18;;;20.20;99.90;;;;;;5075121;28;20038;-87
2022/06/23 06:35:37;;;;;;;8.35;6.20;;;20.30;99.90;;;;;;5056512;28;20127;-86
2022/06/23 06:38:06;;;;;;;9.20;6.55;;;20.50;99.90;;;;;;5095075;28;20110;-85
2022/06/23 06:40:34;;;;;;;8.00;6.60;;;20.60;99.90;;;;;;5075373;28;20035;-86
2022/06/23 06:43:06;;;;;;;8.10;5.90;;;20.90;99.90;;;;;;5092337;28;20483;-87
2022/06/23 06:45:36;;;;;;;8.27;6.15;;;21.00;99.90;;;;;;5103991;28;20562;-86
2022/06/23 06:48:04;;;;;;;9.73;6.13;;;21.10;99.90;;;;;;5093936;28;20040;-87
2022/06/23 06:50:46;;;;;;;9.57;6.43;;;21.20;99.90;;;;;;5099332;28;20040;-87
2022/06/23 06:53:33;;;;;;;9.48;5.93;;;21.30;99.90;;;;;;5092589;28;20452;-87
2022/06/23 06:56:04;;;;;;;;;;;21.40;99.90;;;;;;5092193;28;20046;-86
2022/06/23 06:58:50;;;;;;;8.52;5.72;;;21.70;99.90;;;;;;5073112;28;19923;-86
2022/06/23 07:01:22;;;;;;;10.82;5.90;;;21.80;99.90;;;;;;5095811;28;20071;-86
2022/06/23 07:03:50;;;;;;;8.75;5.50;;;21.90;99.90;;;;;;5104212;28;20040;-86
2022/06/23 07:06:31;;;;;;;9.65;6.03;;;22.10;99.90;;;;;;5082138;28;20127;-86
2022/06/23 07:09:10;;;;;;;14.05;5.30;;;22.20;99.90;;;;;;5072578;28;20072;-87
2022/06/23 07:12:01;;;;;;;7.30;5.25;;;22.20;99.90;;;;;;5091825;28;20097;-87
2022/06/23 07:14:45;;;;;;;5.80;4.80;;;22.30;99.90;;;;;;5067508;28;20039;-86
2022/06/23 07:17:40;;;;;;;8.43;5.43;;;22.30;99.90;;;;;;5082180;28;20166;-86
2022/06/23 07:20:46;;;;;;;6.25;5.03;;;22.40;99.90;;;;;;5064243;28;20555;-86
2022/06/23 07:23:38;;;;;;;7.00;5.13;;;22.60;99.90;;;;;;5052778;28;20036;-86
2022/06/23 07:26:11;;;;;;;8.18;5.35;;;22.60;99.90;;;;;;5059007;28;20074;-86
2022/06/23 07:28:43;;;;;;;6.35;5.03;;;22.90;99.90;;;;;;5090335;28;20293;-86
2022/06/23 07:31:25;;;;;;;7.00;4.95;;;23.10;99.90;;;;;;5076821;28;20609;-86
2022/06/23 07:33:59;;;;;;;8.07;5.18;;;23.10;99.90;;;;;;5073803;28;20407;-86
2022/06/23 07:36:38;;;;;;;6.57;4.95;;;23.00;99.90;;;;;;5077450;28;20037;-86
2022/06/23 07:39:07;;;;;;;6.93;4.85;;;23.10;99.90;;;;;;5090647;28;20548;-86
2022/06/23 07:41:42;;;;;;;6.82;5.50;;;23.30;99.90;;;;;;5095175;28;20047;-86
2022/06/23 07:44:13;;;;;;;6.72;5.35;;;23.40;99.90;;;;;;5078290;28;20047;-86
2022/06/23 07:46:39;;;;;;;8.13;5.00;;;23.50;99.90;;;;;;5090574;28;20074;-87
2022/06/23 07:49:06;;;;;;;9.68;5.05;;;23.60;99.90;;;;;;5116448;28;20064;-86
2022/06/23 07:51:34;;;;;;;6.60;4.47;;;23.80;99.90;;;;;;5112376;28;20043;-85
2022/06/23 07:54:00;;;;;;;6.28;4.35;;;23.90;99.90;;;;;;5077740;28;20035;-87
2022/06/23 07:56:30;;;;;;;6.85;4.40;;;24.10;99.90;;;;;;5084187;28;20156;-84
2022/06/23 07:59:04;;;;;;;8.15;4.30;;;24.20;99.90;;;;;;5091923;28;20111;-87
2022/06/23 08:01:55;;;;;;;6.90;4.40;;;24.40;99.90;;;;;;5101320;28;20032;-86
2022/06/23 08:04:41;;;;;;;8.55;4.72;;;24.50;99.90;;;;;;5039779;28;20056;-85
2022/06/23 08:07:10;;;;;;;5.07;3.90;;;24.90;99.90;;;;;;5095036;28;20039;-87
2022/06/23 08:09:48;;;;;;;5.28;3.85;;;25.20;99.90;;;;;;5078179;28;20054;-87
2022/06/23 08:18:41;;;;;;;;;;;25.30;99.90;;;;;;5073354;28;20113;-87
2022/06/23 08:21:14;;;;;;;4.93;3.30;;;25.50;99.90;;;;;;5015770;28;19916;-86
2022/06/23 08:24:01;;;;;;;5.28;4.10;;;25.70;99.90;;;;;;5077897;28;20051;-87
2022/06/23 08:26:28;;;;;;;6.45;3.83;;;25.80;99.90;;;;;;5093608;28;20040;-86
2022/06/23 08:28:58;;;;;;;5.43;3.67;;;26.00;99.90;;;;;;5077331;28;20123;-87
2022/06/23 08:31:26;;;;;;;5.70;3.33;;;26.30;99.90;;;;;;5094832;28;20054;-87
2022/06/23 08:33:52;;;;;;;4.88;3.35;;;26.50;99.90;;;;;;5093888;28;20105;-87
2022/06/23 08:36:21;;;;;;;5.35;3.80;;;26.50;99.90;;;;;;5077951;28;20071;-87
2022/06/23 08:39:08;;;;;;;6.38;3.80;;;26.50;99.90;;;;;;5077792;28;20034;-87
2022/06/23 08:41:33;;;;;;;;;;;26.60;99.90;;;;;;5084741;28;20039;-86
2022/06/23 08:44:10;;;;;;;5.05;3.97;;;26.80;99.90;;;;;;5103221;28;20236;-87
2022/06/23 08:47:06;;;;;;;6.93;3.90;;;27.00;99.90;;;;;;5076321;28;20491;-86
2022/06/23 08:49:39;;;;;;;7.32;3.58;;;27.10;99.90;;;;;;5110866;28;20027;-86
2022/06/23 08:52:19;;;;;;;6.53;3.28;;;27.30;99.90;;;;;;5086420;28;20397;-86
2022/06/23 08:55:13;;;;;;;6.47;4.05;;;27.50;99.90;;;;;;5093540;28;20511;-86
2022/06/23 08:57:45;;;;;;;7.50;3.85;;;27.40;99.90;;;;;;5089914;28;20400;-87
2022/06/23 09:00:20;;;;;;;5.72;3.50;;;27.30;99.90;;;;;;5060955;28;20042;-86
2022/06/23 09:03:03;;;;;;;7.60;3.60;;;27.50;99.90;;;;;;5086019;28;20116;-87
2022/06/23 09:05:57;;;;;;;7.38;2.72;;;27.60;99.90;;;;;;5070111;28;20036;-86
2022/06/23 09:08:43;;;;;;;4.28;3.33;;;27.80;99.90;;;;;;5073561;28;20036;-86
2022/06/23 09:11:12;;;;;;;5.10;3.35;;;28.10;99.90;;;;;;5091755;28;20119;-85
2022/06/23 09:13:54;;;;;;;4.75;3.00;;;28.20;99.50;;;;;;5073410;28;20031;-87
2022/06/23 09:16:34;;;;;;;5.03;2.80;;;28.20;99.60;;;;;;5076727;28;20073;-86
2022/06/23 09:19:00;;;;;;;6.88;3.25;;;28.50;99.90;;;;;;5085917;28;20496;-86
2022/06/23 09:21:47;;;;;;;6.55;3.33;;;28.80;99.20;;;;;;5075328;28;20040;-86
2022/06/23 09:24:41;;;;;;;4.50;3.35;;;28.90;98.80;;;;;;5071641;28;20047;-85
2022/06/23 09:27:30;;;;;;;4.53;2.53;;;29.10;98.40;;;;;;5059736;28;20060;-86
2022/06/23 09:30:11;;;;;;;4.07;3.20;;;29.30;98.80;;;;;;5085228;28;20082;-86
2022/06/23 09:32:56;;;;;;;4.60;3.10;;;29.30;97.80;;;;;;5092915;28;20112;-86
2022/06/23 09:35:42;;;;;;;5.97;3.30;;;29.20;97.90;;;;;;5102561;28;20132;-86
2022/06/23 09:38:35;;;;;;;7.18;2.88;;;29.40;97.90;;;;;;5074867;28;20032;-86
2022/06/23 09:41:12;;;;;;;5.78;2.90;;;29.70;98.20;;;;;;5075854;28;20072;-86
2022/06/23 09:43:56;;;;;;;4.47;2.75;;;29.80;98.20;;;;;;5076170;28;20036;-86
2022/06/23 09:46:38;;;;;;;5.20;2.75;;;30.00;97.10;;;;;;5093910;28;20443;-86
2022/06/23 09:49:29;;;;;;;5.47;2.40;;;30.30;97.60;;;;;;5110073;28;20043;-85
2022/06/23 09:52:16;;;;;;;6.00;2.35;;;30.40;96.40;;;;;;5093132;28;20044;-85
2022/06/23 09:54:44;;;;;;;5.25;2.80;;;30.40;96.80;;;;;;5086966;28;20407;-86
2022/06/23 09:57:45;;;;;;;5.10;2.28;;;30.40;96.40;;;;;;5092813;28;20491;-85
2022/06/23 10:00:17;;;;;;;5.28;2.40;;;30.50;96.50;;;;;;5034378;28;20040;-85
2022/06/23 10:03:01;;;;;;;4.38;2.03;;;30.60;95.60;;;;;;5076774;28;20044;-86
2022/06/23 10:06:04;;;;;;;2.97;2.00;;;30.80;94.60;;;;;;5109593;28;20055;-86
2022/06/23 10:09:08;;;;;;;4.88;1.95;;;30.80;93.80;;;;;;5075988;28;20051;-86
2022/06/23 10:11:37;;;;;;;4.38;2.03;;;30.80;94.30;;;;;;5057848;28;20083;-86
2022/06/23 10:14:27;;;;;;;6.55;2.08;;;30.90;94.30;;;;;;5077221;28;20035;-85
2022/06/23 10:17:19;;;;;;;4.05;1.85;;;31.30;93.60;;;;;;5096046;28;20024;-86
2022/06/23 10:20:11;;;;;;;3.97;1.67;;;31.30;93.00;;;;;;5069844;28;20111;-85
2022/06/23 10:22:52;;;;;;;2.83;1.70;;;31.50;93.60;;;;;;5066290;28;20035;-85
2022/06/23 10:25:50;;;;;;;5.88;1.67;;;31.50;92.20;;;;;;5089678;28;20581;-85
2022/06/23 10:28:41;;;;;;;2.47;1.80;;;31.80;92.60;;;;;;5075325;28;20043;-85
2022/06/23 10:31:35;;;;;;;3.47;1.70;;;32.10;92.70;;;;;;5073794;28;20043;-86
2022/06/23 10:34:11;;;;;;;2.88;1.40;;;32.20;92.60;;;;;;5083123;28;20085;-84
2022/06/23 10:37:10;;;;;;;3.95;1.70;;;32.20;92.40;;;;;;5092182;28;20082;-85
2022/06/23 10:39:45;;;;;;;3.42;1.52;;;32.50;91.90;;;;;;5092657;28;20057;-84
2022/06/23 10:42:26;;;;;;;7.03;2.00;;;32.50;91.30;;;;;;5075299;28;20127;-86
2022/06/23 10:45:21;;;;;;;3.70;1.65;;;32.80;91.10;;;;;;5088426;28;20035;-86
2022/06/23 10:48:40;;;;;;;4.35;1.80;;;32.90;91.10;;;;;;5075435;28;20398;-86
2022/06/23 10:51:24;;;;;;;3.63;2.00;;;32.70;90.10;;;;;;5018605;28;20037;-86
2022/06/23 10:54:22;;;;;;;5.05;1.92;;;32.20;90.80;;;;;;5039548;28;20404;-87
2022/06/23 10:57:03;;;;;;;3.05;1.63;;;32.30;90.70;;;;;;5058250;28;20128;-85
2022/06/23 10:59:53;;;;;;;3.05;1.63;;;32.20;91.00;;;;;;5080587;28;20039;-85
2022/06/23 11:02:41;;;;;;;4.72;1.70;;;32.40;91.50;;;;;;5088648;28;20525;-86
2022/06/23 11:05:34;;;;;;;3.28;2.10;;;32.50;91.30;;;;;;5066549;28;20714;-86
2022/06/23 11:08:30;;;;;;;3.67;1.80;;;32.60;91.40;;;;;;5096211;28;20043;-86
2022/06/23 11:11:07;;;;;;;4.18;2.00;;;32.60;91.30;;;;;;5079206;28;20537;-85
2022/06/23 11:13:40;;;;;;;4.22;1.80;;;32.40;91.20;;;;;;5079027;28;20126;-85
2022/06/23 11:16:43;;;;;;;3.67;1.60;;;32.50;91.40;;;;;;5089178;28;20036;-85
2022/06/23 11:19:37;;;;;;;4.97;1.80;;;32.60;90.70;;;;;;5095541;28;20072;-85
2022/06/23 11:22:22;;;;;;;6.68;2.40;;;32.70;91.50;;;;;;5095062;28;20093;-85
2022/06/23 11:24:50;;;;;;;2.88;1.60;;;32.80;90.90;;;;;;5078562;28;20047;-85
2022/06/23 11:27:35;;;;;;;5.15;1.90;;;32.90;90.90;;;;;;5095598;28;20082;-85
2022/06/23 11:30:22;;;;;;;4.95;1.73;;;33.30;91.10;;;;;;5095739;28;20046;-85
2022/06/23 11:33:22;;;;;;;4.15;1.80;;;33.30;90.70;;;;;;5095615;28;20047;-84
2022/06/23 11:36:10;;;;;;;4.40;1.70;;;33.40;90.90;;;;;;5090964;28;20039;-85
2022/06/23 11:38:58;;;;;;;3.72;1.92;;;33.60;90.80;;;;;;5095368;28;20035;-87
2022/06/23 11:41:33;;;;;;;3.58;1.77;;;33.30;90.90;;;;;;5084952;28;20081;-85
2022/06/23 11:44:13;;;;;;;3.20;1.83;;;33.40;90.50;;;;;;5090552;28;20372;-85
2022/06/23 11:46:58;;;;;;;3.28;1.85;;;33.70;90.30;;;;;;5092876;28;20039;-85
2022/06/23 11:49:36;;;;;;;4.68;1.80;;;33.90;90.80;;;;;;5086288;28;20047;-84
2022/06/23 11:52:24;;;;;;;4.07;2.17;;;34.10;89.90;;;;;;5095435;28;20027;-84
2022/06/23 11:55:14;;;;;;;7.30;2.15;;;34.20;89.40;;;;;;5109330;28;20101;-85
2022/06/23 11:58:18;;;;;;;3.33;1.70;;;34.20;90.10;;;;;;5092139;28;20043;-85
2022/06/23 12:01:02;;;;;;;2.20;1.70;;;34.10;89.70;;;;;;5095218;28;20051;-85
2022/06/23 12:03:39;;;;;;;4.45;1.85;;;34.40;90.10;;;;;;5099703;28;20399;-84
2022/06/23 12:06:17;;;;;;;3.35;1.83;;;34.20;88.90;;;;;;5078109;28;20046;-85
2022/06/23 12:08:49;;;;;;;3.17;1.67;;;34.40;89.10;;;;;;5094930;28;20040;-84
2022/06/23 12:11:15;;;;;;;3.53;1.70;;;34.30;88.80;;;;;;5077565;28;20043;-85
2022/06/23 12:13:41;;;;;;;3.50;1.55;;;34.30;87.80;;;;;;5089669;28;20043;-84
2022/06/23 12:16:06;;;;;;;9.23;1.73;;;34.50;87.90;;;;;;5092265;28;20502;-85
2022/06/23 12:18:43;;;;;;;3.10;1.55;;;34.50;87.20;;;;;;5093700;28;20039;-85
2022/06/23 12:21:25;;;;;;;4.55;1.50;;;34.40;87.70;;;;;;5085314;28;20039;-85
2022/06/23 12:24:16;;;;;;;3.90;1.42;;;34.60;87.20;;;;;;5111815;28;20490;-85
2022/06/23 12:27:11;;;;;;;3.15;1.40;;;34.90;85.10;;;;;;5104066;28;20036;-85
2022/06/23 12:29:40;;;;;;;2.67;1.17;;;35.00;85.10;;;;;;5066880;28;20040;-85
2022/06/23 12:32:11;;;;;;;1.95;1.20;;;34.90;85.40;;;;;;5094636;28;20036;-86
2022/06/23 12:35:08;;;;;;;2.80;1.27;;;34.80;85.20;;;;;;5094306;28;20350;-85
2022/06/23 12:37:40;;;;;;;;;;;35.00;84.40;;;;;;5070201;28;20043;-84
2022/06/23 12:40:31;;;;;;;5.78;1.20;;;34.90;83.90;;;;;;5102239;28;19927;-85
2022/06/23 12:43:03;;;;;;;2.08;1.35;;;34.80;83.60;;;;;;5093724;28;20031;-85
2022/06/23 12:45:47;;;;;;;2.67;1.30;;;35.00;84.50;;;;;;5094028;28;20491;-85
2022/06/23 12:48:40;;;;;;;4.40;1.45;;;35.00;83.90;;;;;;5067594;28;20042;-85
2022/06/23 12:51:27;;;;;;;2.88;1.40;;;34.90;83.90;;;;;;5051847;28;20067;-85
2022/06/23 12:54:13;;;;;;;1.88;1.33;;;35.00;83.20;;;;;;5076884;28;20035;-85
2022/06/23 12:57:06;;;;;;;2.35;1.20;;;35.00;83.30;;;;;;5088893;28;20124;-85
2022/06/23 13:00:09;;;;;;;2.42;1.10;;;35.20;83.00;;;;;;5081417;28;20120;-84
2022/06/23 13:02:39;;;;;;;2.13;1.25;;;35.00;82.20;;;;;;5084333;28;20047;-86
2022/06/23 13:05:27;;;;;;;2.95;1.50;;;35.30;83.60;;;;;;5091364;28;20123;-84
2022/06/23 13:08:03;;;;;;;2.58;1.08;;;35.40;82.70;;;;;;5103407;28;20047;-84
2022/06/23 13:10:45;;;;;;;2.58;1.38;;;35.80;83.10;;;;;;5067606;28;20065;-85
2022/06/23 13:13:33;;;;;;;2.80;1.42;;;35.80;81.70;;;;;;5093766;28;20483;-85
2022/06/23 13:16:10;;;;;;;2.70;1.40;;;35.70;82.30;;;;;;5093137;28;20114;-84
2022/06/23 13:18:50;;;;;;;2.72;1.30;;;35.80;81.80;;;;;;5074546;28;20106;-85
2022/06/23 13:21:29;;;;;;;1.75;1.20;;;35.80;80.90;;;;;;5089989;28;20100;-84
2022/06/23 13:24:04;;;;;;;3.10;1.42;;;35.90;81.10;;;;;;5090347;28;20431;-84
2022/06/23 13:26:38;;;;;;;2.15;1.30;;;36.00;80.80;;;;;;5069905;28;20955;-85
2022/06/23 13:29:16;;;;;;;3.60;1.48;;;35.80;81.30;;;;;;5091259;28;20039;-85
2022/06/23 13:32:00;;;;;;;3.72;1.50;;;35.90;81.70;;;;;;5093796;28;20492;-84
2022/06/23 13:34:30;;;;;;;3.83;1.50;;;36.10;81.50;;;;;;5116240;28;20035;-84
2022/06/23 13:37:10;;;;;;;5.32;1.60;;;36.20;80.90;;;;;;5090137;28;20044;-82
2022/06/23 13:40:01;;;;;;;8.15;1.83;;;36.30;80.70;;;;;;5097810;28;20075;-85
2022/06/23 13:42:34;;;;;;;4.20;1.70;;;36.40;80.50;;;;;;5089460;28;20040;-85
2022/06/23 13:45:06;;;;;;;2.85;1.10;;;36.40;78.90;;;;;;5090745;28;20033;-84
2022/06/23 13:47:45;;;;;;;4.35;1.50;;;36.20;80.00;;;;;;5092560;28;20055;-83
2022/06/23 13:50:33;;;;;;;4.30;1.20;;;36.10;80.40;;;;;;5085283;28;20039;-83
2022/06/23 13:53:23;;;;;;;2.35;1.50;;;36.10;80.10;;;;;;5098350;28;20070;-83
2022/06/23 13:56:43;;;;;;;1.90;1.30;;;36.00;79.50;;;;;;5068971;28;20055;-84
2022/06/23 13:59:21;;;;;;;3.35;1.70;;;35.70;80.00;;;;;;5065189;28;20062;-84
2022/06/23 14:02:17;;;;;;;2.55;1.50;;;35.70;80.20;;;;;;5075703;28;20536;-85
2022/06/23 14:04:52;;;;;;;2.65;1.58;;;35.90;80.50;;;;;;5092178;28;20036;-85
2022/06/23 14:07:27;;;;;;;3.08;1.50;;;35.70;79.10;;;;;;5093471;28;20074;-83
2022/06/23 14:10:22;;;;;;;2.78;1.52;;;35.40;80.30;;;;;;5115719;28;20092;-84
2022/06/23 14:13:09;;;;;;;2.20;1.58;;;35.20;80.00;;;;;;5086262;28;20047;-83
2022/06/23 14:15:48;;;;;;;3.42;1.50;;;35.20;81.10;;;;;;5083174;28;20032;-83